sensor_id;sensor_type;location;lat;lon;timestamp;temperature;humidity
70676;DHT22;59069;52.242;20.900;2022-09-09T00:06:30;13.54;72.73
70676;DHT22;59069;52.242;20.900;2022-09-09T00:09:15;13.47;73.36
70676;DHT22;59069;52.242;20.900;2022-09-09T00:17:53;13.27;74.75
70676;DHT22;59069;52.242;20.900;2022-09-09T00:20:36;13.16;75.06
70676;DHT22;59069;52.242;20.900;2022-09-09T00:23:14;13.10;75.62
70676;DHT22;59069;52.242;20.900;2022-09-09T00:31:33;13.00;76.78
70676;DHT22;59069;52.242;20.900;2022-09-09T00:34:13;12.95;77.00
70676;DHT22;59069;52.242;20.900;2022-09-09T00:36:40;12.93;77.40
70676;DHT22;59069;52.242;20.900;2022-09-09T00:39:23;12.92;77.67
70676;DHT22;59069;52.242;20.900;2022-09-09T00:45:35;12.92;78.59
70676;DHT22;59069;52.242;20.900;2022-09-09T00:48:10;12.92;78.59
70676;DHT22;59069;52.242;20.900;2022-09-09T00:53:33;12.86;79.21
70676;DHT22;59069;52.242;20.900;2022-09-09T00:56:14;12.85;79.31
70676;DHT22;59069;52.242;20.900;2022-09-09T00:58:54;12.83;79.60
70676;DHT22;59069;52.242;20.900;2022-09-09T01:01:23;12.79;79.94
70676;DHT22;59069;52.242;20.900;2022-09-09T01:03:53;12.83;80.01
70676;DHT22;59069;52.242;20.900;2022-09-09T01:06:36;12.85;80.45
70676;DHT22;59069;52.242;20.900;2022-09-09T01:09:22;12.82;80.73
70676;DHT22;59069;52.242;20.900;2022-09-09T01:12:12;12.79;80.85
70676;DHT22;59069;52.242;20.900;2022-09-09T01:14:45;12.78;80.95
70676;DHT22;59069;52.242;20.900;2022-09-09T01:17:17;12.73;81.26
70676;DHT22;59069;52.242;20.900;2022-09-09T01:24:45;12.72;81.92
70676;DHT22;59069;52.242;20.900;2022-09-09T01:27:17;12.71;82.12
70676;DHT22;59069;52.242;20.900;2022-09-09T01:29:43;12.71;82.25
70676;DHT22;59069;52.242;20.900;2022-09-09T01:32:47;12.68;82.38
70676;DHT22;59069;52.242;20.900;2022-09-09T01:36:03;12.71;82.50
70676;DHT22;59069;52.242;20.900;2022-09-09T01:38:21;12.68;82.58
70676;DHT22;59069;52.242;20.900;2022-09-09T01:40:47;12.66;82.58
70676;DHT22;59069;52.242;20.900;2022-09-09T01:43:14;12.65;82.64
70676;DHT22;59069;52.242;20.900;2022-09-09T01:45:40;12.66;82.94
70676;DHT22;59069;52.242;20.900;2022-09-09T01:48:07;12.66;83.01
70676;DHT22;59069;52.242;20.900;2022-09-09T01:50:33;12.66;83.03
70676;DHT22;59069;52.242;20.900;2022-09-09T01:52:59;12.68;83.17
70676;DHT22;59069;52.242;20.900;2022-09-09T01:55:55;12.68;83.21
70676;DHT22;59069;52.242;20.900;2022-09-09T02:03:36;12.69;83.38
70676;DHT22;59069;52.242;20.900;2022-09-09T02:08:41;12.68;83.57
70676;DHT22;59069;52.242;20.900;2022-09-09T02:11:17;12.68;83.53
70676;DHT22;59069;52.242;20.900;2022-09-09T02:13:45;12.65;83.68
70676;DHT22;59069;52.242;20.900;2022-09-09T02:16:28;12.66;83.77
70676;DHT22;59069;52.242;20.900;2022-09-09T02:19:08;12.65;83.78
70676;DHT22;59069;52.242;20.900;2022-09-09T02:21:35;12.62;83.86
70676;DHT22;59069;52.242;20.900;2022-09-09T02:24:05;12.61;84.01
70676;DHT22;59069;52.242;20.900;2022-09-09T02:26:36;12.59;84.08
70676;DHT22;59069;52.242;20.900;2022-09-09T02:29:07;12.58;84.11
70676;DHT22;59069;52.242;20.900;2022-09-09T02:31:34;12.61;84.22
70676;DHT22;59069;52.242;20.900;2022-09-09T02:34:01;12.59;84.22
70676;DHT22;59069;52.242;20.900;2022-09-09T02:36:32;12.59;84.16
70676;DHT22;59069;52.242;20.900;2022-09-09T02:38:59;12.59;84.26
70676;DHT22;59069;52.242;20.900;2022-09-09T02:41:35;12.61;84.55
70676;DHT22;59069;52.242;20.900;2022-09-09T02:44:02;12.63;84.59
70676;DHT22;59069;52.242;20.900;2022-09-09T02:46:41;12.65;84.49
70676;DHT22;59069;52.242;20.900;2022-09-09T02:49:14;12.68;84.51
70676;DHT22;59069;52.242;20.900;2022-09-09T02:52:04;12.69;84.59
70676;DHT22;59069;52.242;20.900;2022-09-09T02:54:35;12.66;84.63
70676;DHT22;59069;52.242;20.900;2022-09-09T02:57:23;12.69;84.65
70676;DHT22;59069;52.242;20.900;2022-09-09T02:59:50;12.68;84.69
70676;DHT22;59069;52.242;20.900;2022-09-09T03:02:17;12.69;84.64
70676;DHT22;59069;52.242;20.900;2022-09-09T03:04:44;12.66;84.66
70676;DHT22;59069;52.242;20.900;2022-09-09T03:07:10;12.65;84.78
70676;DHT22;59069;52.242;20.900;2022-09-09T03:09:35;12.65;84.83
70676;DHT22;59069;52.242;20.900;2022-09-09T03:12:01;12.63;84.92
70676;DHT22;59069;52.242;20.900;2022-09-09T03:14:26;12.62;85.07
70676;DHT22;59069;52.242;20.900;2022-09-09T03:16:53;12.66;85.22
70676;DHT22;59069;52.242;20.900;2022-09-09T03:19:18;12.68;85.32
70676;DHT22;59069;52.242;20.900;2022-09-09T03:21:47;12.72;85.28
70676;DHT22;59069;52.242;20.900;2022-09-09T03:24:13;12.68;85.35
70676;DHT22;59069;52.242;20.900;2022-09-09T03:26:39;12.68;85.43
70676;DHT22;59069;52.242;20.900;2022-09-09T03:29:06;12.69;85.51
70676;DHT22;59069;52.242;20.900;2022-09-09T03:31:32;12.71;85.63
70676;DHT22;59069;52.242;20.900;2022-09-09T03:33:58;12.69;85.64
70676;DHT22;59069;52.242;20.900;2022-09-09T03:36:27;12.66;85.66
70676;DHT22;59069;52.242;20.900;2022-09-09T03:38:53;12.66;85.71
70676;DHT22;59069;52.242;20.900;2022-09-09T03:41:22;12.72;85.78
70676;DHT22;59069;52.242;20.900;2022-09-09T03:43:52;12.72;85.87
70676;DHT22;59069;52.242;20.900;2022-09-09T03:46:19;12.73;85.89
70676;DHT22;59069;52.242;20.900;2022-09-09T03:48:46;12.73;85.86
70676;DHT22;59069;52.242;20.900;2022-09-09T03:51:11;12.75;85.96
70676;DHT22;59069;52.242;20.900;2022-09-09T03:53:37;12.76;85.97
70676;DHT22;59069;52.242;20.900;2022-09-09T03:56:04;12.78;85.97
70676;DHT22;59069;52.242;20.900;2022-09-09T03:58:35;12.82;86.01
70676;DHT22;59069;52.242;20.900;2022-09-09T04:01:06;12.82;85.99
70676;DHT22;59069;52.242;20.900;2022-09-09T04:03:33;12.83;85.95
70676;DHT22;59069;52.242;20.900;2022-09-09T04:06:00;12.83;86.06
70676;DHT22;59069;52.242;20.900;2022-09-09T04:08:27;12.82;86.08
70676;DHT22;59069;52.242;20.900;2022-09-09T04:10:53;12.82;86.17
70676;DHT22;59069;52.242;20.900;2022-09-09T04:13:21;12.82;86.25
70676;DHT22;59069;52.242;20.900;2022-09-09T04:15:58;12.85;86.24
70676;DHT22;59069;52.242;20.900;2022-09-09T04:18:23;12.85;86.18
70676;DHT22;59069;52.242;20.900;2022-09-09T04:20:51;12.89;86.15
70676;DHT22;59069;52.242;20.900;2022-09-09T04:23:17;12.89;86.16
70676;DHT22;59069;52.242;20.900;2022-09-09T04:25:52;12.91;86.25
70676;DHT22;59069;52.242;20.900;2022-09-09T04:28:19;12.91;86.20
70676;DHT22;59069;52.242;20.900;2022-09-09T04:30:46;12.89;86.26
70676;DHT22;59069;52.242;20.900;2022-09-09T04:33:12;12.89;86.31
70676;DHT22;59069;52.242;20.900;2022-09-09T04:35:39;12.89;86.38
70676;DHT22;59069;52.242;20.900;2022-09-09T04:38:05;12.88;86.57
70676;DHT22;59069;52.242;20.900;2022-09-09T04:40:34;12.93;86.63
70676;DHT22;59069;52.242;20.900;2022-09-09T04:43:01;12.93;86.63
70676;DHT22;59069;52.242;20.900;2022-09-09T04:45:27;12.95;86.62
70676;DHT22;59069;52.242;20.900;2022-09-09T04:47:53;12.95;86.61
70676;DHT22;59069;52.242;20.900;2022-09-09T04:50:19;12.95;86.68
70676;DHT22;59069;52.242;20.900;2022-09-09T04:52:45;13.00;86.72
70676;DHT22;59069;52.242;20.900;2022-09-09T04:55:10;13.04;86.68
70676;DHT22;59069;52.242;20.900;2022-09-09T04:57:37;13.06;86.59
70676;DHT22;59069;52.242;20.900;2022-09-09T05:00:03;13.09;86.57
70676;DHT22;59069;52.242;20.900;2022-09-09T05:02:29;13.07;86.55
70676;DHT22;59069;52.242;20.900;2022-09-09T05:04:55;13.04;86.63
70676;DHT22;59069;52.242;20.900;2022-09-09T05:07:21;13.06;86.78
70676;DHT22;59069;52.242;20.900;2022-09-09T05:09:46;13.04;86.74
70676;DHT22;59069;52.242;20.900;2022-09-09T05:12:15;13.04;86.69
70676;DHT22;59069;52.242;20.900;2022-09-09T05:14:42;13.02;86.79
70676;DHT22;59069;52.242;20.900;2022-09-09T05:17:07;13.06;86.77
70676;DHT22;59069;52.242;20.900;2022-09-09T05:19:32;13.04;86.74
70676;DHT22;59069;52.242;20.900;2022-09-09T05:21:58;13.09;86.69
70676;DHT22;59069;52.242;20.900;2022-09-09T05:24:23;13.10;86.81
70676;DHT22;59069;52.242;20.900;2022-09-09T05:26:49;13.14;86.84
70676;DHT22;59069;52.242;20.900;2022-09-09T05:29:14;13.17;86.81
70676;DHT22;59069;52.242;20.900;2022-09-09T05:31:40;13.19;86.74
70676;DHT22;59069;52.242;20.900;2022-09-09T05:34:06;13.20;86.74
70676;DHT22;59069;52.242;20.900;2022-09-09T05:36:31;13.20;86.65
70676;DHT22;59069;52.242;20.900;2022-09-09T05:38:57;13.22;86.73
70676;DHT22;59069;52.242;20.900;2022-09-09T05:41:23;13.20;86.64
70676;DHT22;59069;52.242;20.900;2022-09-09T05:43:48;13.22;86.67
70676;DHT22;59069;52.242;20.900;2022-09-09T05:46:16;13.24;86.77
70676;DHT22;59069;52.242;20.900;2022-09-09T05:48:44;13.27;86.74
70676;DHT22;59069;52.242;20.900;2022-09-09T05:51:14;13.30;86.76
70676;DHT22;59069;52.242;20.900;2022-09-09T05:53:43;13.28;86.65
70676;DHT22;59069;52.242;20.900;2022-09-09T05:56:17;13.30;86.73
70676;DHT22;59069;52.242;20.900;2022-09-09T05:58:43;13.33;86.77
70676;DHT22;59069;52.242;20.900;2022-09-09T06:01:17;13.36;86.79
70676;DHT22;59069;52.242;20.900;2022-09-09T06:03:44;13.37;86.87
70676;DHT22;59069;52.242;20.900;2022-09-09T06:06:13;13.37;86.84
70676;DHT22;59069;52.242;20.900;2022-09-09T06:08:41;13.40;86.79
70676;DHT22;59069;52.242;20.900;2022-09-09T06:13:45;13.40;86.65
70676;DHT22;59069;52.242;20.900;2022-09-09T06:16:12;13.39;86.73
70676;DHT22;59069;52.242;20.900;2022-09-09T06:18:38;13.42;86.72
70676;DHT22;59069;52.242;20.900;2022-09-09T06:21:06;13.43;86.75
70676;DHT22;59069;52.242;20.900;2022-09-09T06:23:33;13.40;86.84
70676;DHT22;59069;52.242;20.900;2022-09-09T06:26:20;13.42;86.84
70676;DHT22;59069;52.242;20.900;2022-09-09T06:28:47;13.46;87.01
70676;DHT22;59069;52.242;20.900;2022-09-09T06:31:15;13.47;87.09
70676;DHT22;59069;52.242;20.900;2022-09-09T06:33:42;13.51;87.06
70676;DHT22;59069;52.242;20.900;2022-09-09T06:38:37;13.57;87.12
70676;DHT22;59069;52.242;20.900;2022-09-09T06:41:03;13.61;86.77
70676;DHT22;59069;52.242;20.900;2022-09-09T06:43:31;13.61;86.72
70676;DHT22;59069;52.242;20.900;2022-09-09T06:45:59;13.63;86.54
70676;DHT22;59069;52.242;20.900;2022-09-09T06:48:25;13.67;86.37
70676;DHT22;59069;52.242;20.900;2022-09-09T06:51:09;13.63;86.58
70676;DHT22;59069;52.242;20.900;2022-09-09T06:53:40;13.64;86.72
70676;DHT22;59069;52.242;20.900;2022-09-09T06:56:23;13.70;86.63
70676;DHT22;59069;52.242;20.900;2022-09-09T06:58:50;13.70;86.63
70676;DHT22;59069;52.242;20.900;2022-09-09T07:01:19;13.73;86.71
70676;DHT22;59069;52.242;20.900;2022-09-09T07:03:47;13.73;86.59
70676;DHT22;59069;52.242;20.900;2022-09-09T07:06:15;13.75;86.58
70676;DHT22;59069;52.242;20.900;2022-09-09T07:08:43;13.73;86.61
70676;DHT22;59069;52.242;20.900;2022-09-09T07:11:09;13.75;86.59
70676;DHT22;59069;52.242;20.900;2022-09-09T07:13:34;13.79;86.65
70676;DHT22;59069;52.242;20.900;2022-09-09T07:16:05;13.78;86.57
70676;DHT22;59069;52.242;20.900;2022-09-09T07:18:31;13.78;86.51
70676;DHT22;59069;52.242;20.900;2022-09-09T07:20:56;13.81;86.47
70676;DHT22;59069;52.242;20.900;2022-09-09T07:23:22;13.79;86.47
70676;DHT22;59069;52.242;20.900;2022-09-09T07:25:47;13.84;86.51
70676;DHT22;59069;52.242;20.900;2022-09-09T07:28:13;13.85;86.51
70676;DHT22;59069;52.242;20.900;2022-09-09T07:30:39;13.94;86.39
70676;DHT22;59069;52.242;20.900;2022-09-09T07:33:05;13.97;86.33
70676;DHT22;59069;52.242;20.900;2022-09-09T07:35:30;14.00;86.26
70676;DHT22;59069;52.242;20.900;2022-09-09T07:37:56;14.00;86.12
70676;DHT22;59069;52.242;20.900;2022-09-09T07:40:23;14.02;86.10
70676;DHT22;59069;52.242;20.900;2022-09-09T07:42:49;14.00;86.12
70676;DHT22;59069;52.242;20.900;2022-09-09T07:45:14;14.01;86.32
70676;DHT22;59069;52.242;20.900;2022-09-09T07:47:40;14.05;86.48
70676;DHT22;59069;52.242;20.900;2022-09-09T07:50:08;14.06;86.56
70676;DHT22;59069;52.242;20.900;2022-09-09T07:52:34;14.12;86.45
70676;DHT22;59069;52.242;20.900;2022-09-09T07:54:59;14.19;86.43
70676;DHT22;59069;52.242;20.900;2022-09-09T07:57:27;14.18;86.08
70676;DHT22;59069;52.242;20.900;2022-09-09T07:59:55;14.19;86.02
70676;DHT22;59069;52.242;20.900;2022-09-09T08:02:21;14.18;85.76
70676;DHT22;59069;52.242;20.900;2022-09-09T08:04:48;14.19;85.64
70676;DHT22;59069;52.242;20.900;2022-09-09T08:07:13;14.21;85.74
70676;DHT22;59069;52.242;20.900;2022-09-09T08:09:39;14.25;85.84
70676;DHT22;59069;52.242;20.900;2022-09-09T08:12:04;14.29;85.98
70676;DHT22;59069;52.242;20.900;2022-09-09T08:14:31;14.30;85.67
70676;DHT22;59069;52.242;20.900;2022-09-09T08:16:57;14.28;85.58
70676;DHT22;59069;52.242;20.900;2022-09-09T08:19:23;14.30;85.51
70676;DHT22;59069;52.242;20.900;2022-09-09T08:21:48;14.26;85.69
70676;DHT22;59069;52.242;20.900;2022-09-09T08:24:14;14.28;85.82
70676;DHT22;59069;52.242;20.900;2022-09-09T08:26:46;14.25;85.76
70676;DHT22;59069;52.242;20.900;2022-09-09T08:29:13;14.28;85.77
70676;DHT22;59069;52.242;20.900;2022-09-09T08:31:44;14.30;85.93
70676;DHT22;59069;52.242;20.900;2022-09-09T08:34:11;14.30;85.95
70676;DHT22;59069;52.242;20.900;2022-09-09T08:36:39;14.33;85.87
70676;DHT22;59069;52.242;20.900;2022-09-09T08:39:06;14.40;85.94
70676;DHT22;59069;52.242;20.900;2022-09-09T08:52:20;14.63;85.67
70676;DHT22;59069;52.242;20.900;2022-09-09T08:54:47;14.65;85.59
70676;DHT22;59069;52.242;20.900;2022-09-09T08:57:21;14.63;85.60
70676;DHT22;59069;52.242;20.900;2022-09-09T08:59:52;14.65;85.49
70676;DHT22;59069;52.242;20.900;2022-09-09T09:04:58;14.57;85.34
70676;DHT22;59069;52.242;20.900;2022-09-09T09:12:55;14.69;85.53
70676;DHT22;59069;52.242;20.900;2022-09-09T09:15:25;14.72;85.48
70676;DHT22;59069;52.242;20.900;2022-09-09T09:17:50;14.77;85.40
70676;DHT22;59069;52.242;20.900;2022-09-09T09:20:19;14.77;85.25
70676;DHT22;59069;52.242;20.900;2022-09-09T09:22:51;14.79;84.96
70676;DHT22;59069;52.242;20.900;2022-09-09T09:25:23;14.80;85.10
70676;DHT22;59069;52.242;20.900;2022-09-09T09:28:50;14.84;85.21
70676;DHT22;59069;52.242;20.900;2022-09-09T09:31:06;14.84;84.92
70676;DHT22;59069;52.242;20.900;2022-09-09T09:36:09;14.91;85.12
70676;DHT22;59069;52.242;20.900;2022-09-09T09:38:36;14.93;85.20
70676;DHT22;59069;52.242;20.900;2022-09-09T09:41:02;14.94;84.93
70676;DHT22;59069;52.242;20.900;2022-09-09T09:43:29;14.96;85.04
70676;DHT22;59069;52.242;20.900;2022-09-09T09:45:55;14.98;85.15
70676;DHT22;59069;52.242;20.900;2022-09-09T09:48:23;15.01;85.26
70676;DHT22;59069;52.242;20.900;2022-09-09T09:53:28;15.04;84.89
70676;DHT22;59069;52.242;20.900;2022-09-09T09:56:01;15.06;84.81
70676;DHT22;59069;52.242;20.900;2022-09-09T09:58:30;15.04;84.65
70676;DHT22;59069;52.242;20.900;2022-09-09T10:00:57;15.07;84.70
70676;DHT22;59069;52.242;20.900;2022-09-09T10:03:30;15.11;84.89
70676;DHT22;59069;52.242;20.900;2022-09-09T10:05:56;15.16;84.71
70676;DHT22;59069;52.242;20.900;2022-09-09T10:08:27;15.20;84.64
70676;DHT22;59069;52.242;20.900;2022-09-09T10:18:59;15.21;84.50
70676;DHT22;59069;52.242;20.900;2022-09-09T10:35:08;15.25;84.48
70676;DHT22;59069;52.242;20.900;2022-09-09T10:37:54;15.30;84.28
70676;DHT22;59069;52.242;20.900;2022-09-09T10:51:23;15.35;84.10
70676;DHT22;59069;52.242;20.900;2022-09-09T10:56:35;15.39;84.19
70676;DHT22;59069;52.242;20.900;2022-09-09T10:59:14;15.38;84.27
70676;DHT22;59069;52.242;20.900;2022-09-09T11:07:06;15.31;84.03
70676;DHT22;59069;52.242;20.900;2022-09-09T11:09:38;15.27;84.28
70676;DHT22;59069;52.242;20.900;2022-09-09T11:12:05;15.31;84.55
70676;DHT22;59069;52.242;20.900;2022-09-09T11:14:47;15.35;84.68
70676;DHT22;59069;52.242;20.900;2022-09-09T11:17:33;15.37;84.42
70676;DHT22;59069;52.242;20.900;2022-09-09T11:20:01;15.34;84.43
70676;DHT22;59069;52.242;20.900;2022-09-09T11:25:01;15.38;84.68
70676;DHT22;59069;52.242;20.900;2022-09-09T11:30:24;15.44;84.65
70676;DHT22;59069;52.242;20.900;2022-09-09T11:38:46;15.44;84.76
70676;DHT22;59069;52.242;20.900;2022-09-09T11:41:13;15.49;84.79
70676;DHT22;59069;52.242;20.900;2022-09-09T11:43:40;15.47;84.67
70676;DHT22;59069;52.242;20.900;2022-09-09T11:46:07;15.49;84.73
70676;DHT22;59069;52.242;20.900;2022-09-09T11:48:37;15.54;84.74
70676;DHT22;59069;52.242;20.900;2022-09-09T11:51:08;15.51;84.47
70676;DHT22;59069;52.242;20.900;2022-09-09T11:53:57;15.48;84.46
70676;DHT22;59069;52.242;20.900;2022-09-09T11:56:32;15.54;84.51
70676;DHT22;59069;52.242;20.900;2022-09-09T11:59:05;15.56;84.55
70676;DHT22;59069;52.242;20.900;2022-09-09T12:09:49;15.63;84.31
70676;DHT22;59069;52.242;20.900;2022-09-09T12:17:28;15.63;84.42
70676;DHT22;59069;52.242;20.900;2022-09-09T12:20:09;15.61;84.42
70676;DHT22;59069;52.242;20.900;2022-09-09T12:29:12;15.65;84.73
70676;DHT22;59069;52.242;20.900;2022-09-09T12:36:56;15.81;85.06
70676;DHT22;59069;52.242;20.900;2022-09-09T12:39:36;15.86;85.01
70676;DHT22;59069;52.242;20.900;2022-09-09T12:42:03;15.89;84.80
70676;DHT22;59069;52.242;20.900;2022-09-09T12:44:30;15.90;84.67
70676;DHT22;59069;52.242;20.900;2022-09-09T12:46:57;15.92;84.42
70676;DHT22;59069;52.242;20.900;2022-09-09T12:49:36;15.93;84.37
70676;DHT22;59069;52.242;20.900;2022-09-09T12:52:13;15.96;84.31
70676;DHT22;59069;52.242;20.900;2022-09-09T12:54:44;15.92;84.18
70676;DHT22;59069;52.242;20.900;2022-09-09T12:57:12;15.96;84.15
70676;DHT22;59069;52.242;20.900;2022-09-09T12:59:40;15.96;84.24
70676;DHT22;59069;52.242;20.900;2022-09-09T13:02:26;15.93;84.19
70676;DHT22;59069;52.242;20.900;2022-09-09T13:04:53;15.93;84.19
70676;DHT22;59069;52.242;20.900;2022-09-09T13:07:20;15.96;84.33
70676;DHT22;59069;52.242;20.900;2022-09-09T13:09:48;15.99;84.36
70676;DHT22;59069;52.242;20.900;2022-09-09T13:12:19;15.95;84.26
70676;DHT22;59069;52.242;20.900;2022-09-09T13:14:51;15.96;84.24
70676;DHT22;59069;52.242;20.900;2022-09-09T13:17:21;16.00;84.32
70676;DHT22;59069;52.242;20.900;2022-09-09T13:19:48;16.02;84.32
70676;DHT22;59069;52.242;20.900;2022-09-09T13:22:23;16.06;84.36
70676;DHT22;59069;52.242;20.900;2022-09-09T13:25:17;16.09;84.21
70676;DHT22;59069;52.242;20.900;2022-09-09T13:27:53;16.09;84.24
70676;DHT22;59069;52.242;20.900;2022-09-09T13:33:20;16.12;84.09
70676;DHT22;59069;52.242;20.900;2022-09-09T13:35:48;16.12;83.89
70676;DHT22;59069;52.242;20.900;2022-09-09T13:38:15;16.06;83.82
70676;DHT22;59069;52.242;20.900;2022-09-09T13:40:52;16.06;83.72
70676;DHT22;59069;52.242;20.900;2022-09-09T13:43:21;15.99;83.76
70676;DHT22;59069;52.242;20.900;2022-09-09T13:48:21;15.90;84.12
70676;DHT22;59069;52.242;20.900;2022-09-09T13:50:54;15.86;84.27
70676;DHT22;59069;52.242;20.900;2022-09-09T13:53:20;15.82;84.31
70676;DHT22;59069;52.242;20.900;2022-09-09T13:55:45;15.78;84.57
70676;DHT22;59069;52.242;20.900;2022-09-09T13:58:15;15.78;84.76
70676;DHT22;59069;52.242;20.900;2022-09-09T14:00:43;15.78;84.81
70676;DHT22;59069;52.242;20.900;2022-09-09T14:03:10;15.76;84.86
70676;DHT22;59069;52.242;20.900;2022-09-09T14:05:35;15.73;85.06
70676;DHT22;59069;52.242;20.900;2022-09-09T14:08:06;15.70;85.14
70676;DHT22;59069;52.242;20.900;2022-09-09T14:10:33;15.70;85.29
70676;DHT22;59069;52.242;20.900;2022-09-09T14:13:02;15.66;85.27
70676;DHT22;59069;52.242;20.900;2022-09-09T14:15:27;15.68;85.49
70676;DHT22;59069;52.242;20.900;2022-09-09T14:17:54;15.72;85.53
70676;DHT22;59069;52.242;20.900;2022-09-09T14:20:20;15.70;85.67
70676;DHT22;59069;52.242;20.900;2022-09-09T14:22:45;15.70;85.71
70676;DHT22;59069;52.242;20.900;2022-09-09T14:25:11;15.65;85.70
70676;DHT22;59069;52.242;20.900;2022-09-09T14:27:38;15.66;85.80
70676;DHT22;59069;52.242;20.900;2022-09-09T14:30:05;15.66;85.92
70676;DHT22;59069;52.242;20.900;2022-09-09T14:32:30;15.68;85.92
70676;DHT22;59069;52.242;20.900;2022-09-09T14:34:56;15.66;85.95
70676;DHT22;59069;52.242;20.900;2022-09-09T14:37:22;15.72;86.03
70676;DHT22;59069;52.242;20.900;2022-09-09T14:39:47;15.72;86.09
70676;DHT22;59069;52.242;20.900;2022-09-09T14:42:15;15.75;85.97
70676;DHT22;59069;52.242;20.900;2022-09-09T14:44:41;15.76;85.95
70676;DHT22;59069;52.242;20.900;2022-09-09T14:47:06;15.72;85.80
70676;DHT22;59069;52.242;20.900;2022-09-09T14:49:35;15.72;85.94
70676;DHT22;59069;52.242;20.900;2022-09-09T14:52:01;15.75;85.80
70676;DHT22;59069;52.242;20.900;2022-09-09T14:54:27;15.76;85.81
70676;DHT22;59069;52.242;20.900;2022-09-09T14:56:53;15.78;85.82
70676;DHT22;59069;52.242;20.900;2022-09-09T14:59:18;15.81;85.83
70676;DHT22;59069;52.242;20.900;2022-09-09T15:01:44;15.83;85.74
70676;DHT22;59069;52.242;20.900;2022-09-09T15:04:12;15.86;85.64
70676;DHT22;59069;52.242;20.900;2022-09-09T15:06:38;15.82;85.61
70676;DHT22;59069;52.242;20.900;2022-09-09T15:09:04;15.85;85.53
70676;DHT22;59069;52.242;20.900;2022-09-09T15:11:33;15.82;85.46
70676;DHT22;59069;52.242;20.900;2022-09-09T15:14:03;15.83;85.61
70676;DHT22;59069;52.242;20.900;2022-09-09T15:16:28;15.85;85.66
70676;DHT22;59069;52.242;20.900;2022-09-09T15:18:56;15.85;85.63
70676;DHT22;59069;52.242;20.900;2022-09-09T15:21:24;15.88;85.79
70676;DHT22;59069;52.242;20.900;2022-09-09T15:23:50;15.92;85.72
70676;DHT22;59069;52.242;20.900;2022-09-09T15:26:17;16.00;85.57
70676;DHT22;59069;52.242;20.900;2022-09-09T15:28:43;16.05;85.12
70676;DHT22;59069;52.242;20.900;2022-09-09T15:31:10;16.05;84.92
70676;DHT22;59069;52.242;20.900;2022-09-09T15:33:36;16.07;84.83
70676;DHT22;59069;52.242;20.900;2022-09-09T15:36:21;16.06;84.58
70676;DHT22;59069;52.242;20.900;2022-09-09T15:38:48;16.09;84.66
70676;DHT22;59069;52.242;20.900;2022-09-09T15:41:14;16.06;84.64
70676;DHT22;59069;52.242;20.900;2022-09-09T15:43:43;16.02;84.65
70676;DHT22;59069;52.242;20.900;2022-09-09T15:46:30;15.97;84.78
70676;DHT22;59069;52.242;20.900;2022-09-09T15:49:02;15.96;84.68
70676;DHT22;59069;52.242;20.900;2022-09-09T15:51:28;15.93;84.60
70676;DHT22;59069;52.242;20.900;2022-09-09T15:53:55;15.90;84.53
70676;DHT22;59069;52.242;20.900;2022-09-09T15:56:21;15.85;84.60
70676;DHT22;59069;52.242;20.900;2022-09-09T15:58:47;15.85;84.61
70676;DHT22;59069;52.242;20.900;2022-09-09T16:01:12;15.85;84.71
70676;DHT22;59069;52.242;20.900;2022-09-09T16:03:39;15.85;84.82
70676;DHT22;59069;52.242;20.900;2022-09-09T16:06:08;15.86;84.75
70676;DHT22;59069;52.242;20.900;2022-09-09T16:08:41;15.79;84.73
70676;DHT22;59069;52.242;20.900;2022-09-09T16:11:16;15.78;84.73
70676;DHT22;59069;52.242;20.900;2022-09-09T16:13:45;15.76;84.82
70676;DHT22;59069;52.242;20.900;2022-09-09T16:16:12;15.68;84.95
70676;DHT22;59069;52.242;20.900;2022-09-09T16:18:47;15.65;85.12
70676;DHT22;59069;52.242;20.900;2022-09-09T16:21:15;15.63;85.19
70676;DHT22;59069;52.242;20.900;2022-09-09T16:23:41;15.61;85.23
70676;DHT22;59069;52.242;20.900;2022-09-09T16:26:10;15.62;85.26
70676;DHT22;59069;52.242;20.900;2022-09-09T16:28:35;15.61;85.34
70676;DHT22;59069;52.242;20.900;2022-09-09T16:31:04;15.61;85.36
70676;DHT22;59069;52.242;20.900;2022-09-09T16:33:29;15.62;85.39
70676;DHT22;59069;52.242;20.900;2022-09-09T16:35:55;15.61;85.40
70676;DHT22;59069;52.242;20.900;2022-09-09T16:38:20;15.55;85.38
70676;DHT22;59069;52.242;20.900;2022-09-09T16:40:46;15.58;85.45
70676;DHT22;59069;52.242;20.900;2022-09-09T16:43:15;15.56;85.56
70676;DHT22;59069;52.242;20.900;2022-09-09T16:45:42;15.55;85.60
70676;DHT22;59069;52.242;20.900;2022-09-09T16:48:08;15.52;85.61
70676;DHT22;59069;52.242;20.900;2022-09-09T16:50:33;15.51;85.62
70676;DHT22;59069;52.242;20.900;2022-09-09T16:52:59;15.48;85.68
70676;DHT22;59069;52.242;20.900;2022-09-09T16:55:24;15.42;85.82
70676;DHT22;59069;52.242;20.900;2022-09-09T16:57:51;15.38;85.96
70676;DHT22;59069;52.242;20.900;2022-09-09T17:00:16;15.35;86.02
70676;DHT22;59069;52.242;20.900;2022-09-09T17:02:43;15.35;86.04
70676;DHT22;59069;52.242;20.900;2022-09-09T17:05:08;15.34;86.07
70676;DHT22;59069;52.242;20.900;2022-09-09T17:07:34;15.32;86.14
70676;DHT22;59069;52.242;20.900;2022-09-09T17:10:01;15.32;86.22
70676;DHT22;59069;52.242;20.900;2022-09-09T17:12:26;15.27;86.24
70676;DHT22;59069;52.242;20.900;2022-09-09T17:14:51;15.25;86.33
70676;DHT22;59069;52.242;20.900;2022-09-09T17:17:17;15.24;86.33
70676;DHT22;59069;52.242;20.900;2022-09-09T17:19:42;15.23;86.44
70676;DHT22;59069;52.242;20.900;2022-09-09T17:22:08;15.21;86.51
70676;DHT22;59069;52.242;20.900;2022-09-09T17:24:33;15.23;86.52
70676;DHT22;59069;52.242;20.900;2022-09-09T17:26:59;15.21;86.58
70676;DHT22;59069;52.242;20.900;2022-09-09T17:29:26;15.23;86.58
70676;DHT22;59069;52.242;20.900;2022-09-09T17:31:52;15.21;86.61
70676;DHT22;59069;52.242;20.900;2022-09-09T17:34:17;15.14;86.56
70676;DHT22;59069;52.242;20.900;2022-09-09T17:36:42;15.12;86.68
70676;DHT22;59069;52.242;20.900;2022-09-09T17:39:08;15.08;86.68
70676;DHT22;59069;52.242;20.900;2022-09-09T17:41:38;15.07;86.77
70676;DHT22;59069;52.242;20.900;2022-09-09T17:44:04;15.06;86.78
70676;DHT22;59069;52.242;20.900;2022-09-09T17:46:34;15.04;86.87
70676;DHT22;59069;52.242;20.900;2022-09-09T17:49:05;15.04;86.95
70676;DHT22;59069;52.242;20.900;2022-09-09T17:51:32;15.03;86.91
70676;DHT22;59069;52.242;20.900;2022-09-09T17:54:18;15.03;87.03
70676;DHT22;59069;52.242;20.900;2022-09-09T17:56:44;15.01;87.16